createdAt,value
2022-08-17T00:06:45.225Z,4.60
2022-08-17T00:16:56.927Z,5.15
2022-08-17T00:27:02.494Z,5.10
2022-08-17T00:37:05.738Z,4.60
2022-08-17T00:47:10.352Z,4.40
2022-08-17T00:57:18.593Z,4.65
2022-08-17T01:07:25.207Z,3.97
2022-08-17T01:17:28.966Z,4.07
2022-08-17T01:27:33.584Z,4.05
2022-08-17T01:37:39.633Z,3.67
2022-08-17T01:47:44.228Z,3.78
2022-08-17T01:57:47.613Z,4.05
2022-08-17T02:08:00.562Z,3.97
2022-08-17T02:18:04.031Z,4.00
2022-08-17T02:28:08.545Z,4.25
2022-08-17T02:38:11.652Z,4.28
2022-08-17T02:48:16.101Z,4.22
2022-08-17T02:58:36.071Z,4.40
2022-08-17T03:08:40.731Z,4.53
2022-08-17T03:18:43.817Z,5.05
2022-08-17T03:28:48.292Z,4.65
2022-08-17T03:38:51.660Z,5.30
2022-08-17T03:49:13.870Z,5.20
2022-08-17T03:59:22.426Z,5.07
2022-08-17T04:09:27.119Z,5.50
2022-08-17T04:19:30.194Z,5.40
2022-08-17T04:29:54.254Z,5.35
2022-08-17T04:40:11.654Z,5.10
2022-08-17T04:50:16.254Z,5.18
2022-08-17T05:00:19.575Z,5.35
2022-08-17T05:10:24.857Z,5.00
2022-08-17T05:20:28.483Z,5.10
2022-08-17T05:30:33.854Z,5.13
2022-08-17T05:40:39.508Z,6.35
2022-08-17T05:50:50.562Z,5.28
2022-08-17T06:01:03.396Z,5.80
2022-08-17T06:11:20.478Z,6.57
2022-08-17T06:21:32.034Z,6.55
2022-08-17T06:31:38.534Z,8.05
2022-08-17T06:41:49.495Z,5.13
2022-08-17T06:52:01.851Z,6.50
2022-08-17T07:02:08.249Z,6.28
2022-08-17T07:12:16.264Z,8.05
2022-08-17T07:22:27.820Z,4.95
2022-08-17T07:32:41.212Z,6.22
2022-08-17T07:42:46.638Z,6.07
2022-08-17T07:52:52.532Z,5.50
2022-08-17T08:03:21.708Z,6.13
2022-08-17T08:13:30.789Z,5.55
2022-08-17T08:23:44.363Z,6.05
2022-08-17T08:34:01.035Z,6.05
2022-08-17T08:44:14.224Z,5.90
2022-08-17T08:54:31.689Z,6.13
2022-08-17T09:05:13.399Z,5.20
2022-08-17T09:15:22.854Z,5.68
2022-08-17T09:25:29.115Z,5.30
2022-08-17T09:35:37.586Z,5.20
2022-08-17T09:45:45.384Z,5.15
2022-08-17T09:56:07.636Z,4.70
2022-08-17T10:06:21.996Z,4.85
2022-08-17T10:16:36.245Z,4.80
2022-08-17T10:26:55.977Z,4.90
2022-08-17T10:37:10.919Z,4.30
2022-08-17T10:47:17.305Z,4.95
2022-08-17T10:57:43.648Z,4.53
2022-08-17T11:08:05.369Z,4.55
2022-08-17T11:18:33.024Z,4.43
2022-08-17T11:28:48.694Z,5.20
2022-08-17T11:39:04.142Z,5.72
2022-08-17T11:49:36.254Z,5.45
2022-08-17T12:00:02.960Z,5.57
2022-08-17T12:10:08.551Z,5.45
2022-08-17T12:20:21.448Z,5.05
2022-08-17T12:30:24.641Z,5.90
2022-08-17T12:40:31.474Z,4.85
2022-08-17T12:50:35.538Z,4.95
2022-08-17T13:00:47.540Z,5.05
2022-08-17T13:10:56.527Z,5.20
2022-08-17T13:21:01.348Z,4.68
2022-08-17T13:31:32.995Z,4.65
2022-08-17T13:41:50.293Z,4.50
2022-08-17T13:51:53.775Z,4.68
2022-08-17T14:02:01.480Z,5.10
2022-08-17T14:12:07.695Z,4.88
2022-08-17T14:22:18.488Z,4.88
2022-08-17T14:32:23.719Z,4.35
2022-08-17T14:42:30.888Z,4.63
2022-08-17T14:52:33.967Z,4.50
2022-08-17T15:02:48.224Z,4.00
2022-08-17T15:12:51.334Z,4.65
2022-08-17T15:22:57.302Z,5.13
2022-08-17T15:33:01.151Z,4.20
2022-08-17T15:43:07.232Z,3.70
2022-08-17T15:53:10.476Z,3.67
2022-08-17T16:03:59.341Z,4.28
2022-08-17T16:13:42.574Z,4.30
2022-08-17T16:24:05.360Z,3.97
2022-08-17T16:34:18.882Z,3.83
2022-08-17T16:44:23.426Z,3.75
2022-08-17T16:54:26.578Z,3.75
2022-08-17T17:04:35.338Z,3.60
2022-08-17T17:14:42.940Z,4.00
2022-08-17T17:25:07.909Z,3.92
2022-08-17T17:35:17.877Z,5.80
2022-08-17T17:45:25.962Z,4.40
2022-08-17T17:56:01.156Z,4.18
2022-08-17T18:06:22.026Z,4.30
2022-08-17T18:16:25.405Z,4.90
2022-08-17T18:26:45.152Z,6.28
2022-08-17T18:36:48.425Z,5.07
2022-08-17T18:47:07.977Z,5.15
2022-08-17T18:57:12.969Z,4.28
2022-08-17T19:07:29.744Z,4.00
2022-08-17T19:17:42.451Z,4.60
2022-08-17T19:27:57.277Z,4.75
2022-08-17T19:38:12.840Z,4.53
2022-08-17T19:48:28.400Z,4.68
2022-08-17T19:58:46.205Z,4.75
2022-08-17T20:08:59.116Z,4.38
2022-08-17T20:19:06.312Z,4.63
2022-08-17T20:29:37.624Z,4.55
2022-08-17T20:39:46.322Z,4.68
2022-08-17T20:49:54.476Z,5.28
2022-08-17T21:00:13.910Z,5.30
2022-08-17T21:10:29.098Z,5.32
2022-08-17T21:20:40.597Z,5.18
2022-08-17T21:30:51.491Z,4.75
2022-08-17T21:40:55.109Z,4.63
2022-08-17T21:51:03.903Z,4.20
2022-08-17T22:01:13.818Z,4.60
2022-08-17T22:11:18.560Z,3.97
2022-08-17T22:21:22.711Z,4.00
2022-08-17T22:31:50.941Z,4.13
2022-08-17T22:41:57.134Z,4.22
2022-08-17T22:52:33.962Z,5.13
2022-08-17T23:02:49.924Z,5.70
2022-08-17T23:13:01.454Z,5.68
2022-08-17T23:23:06.646Z,5.38
2022-08-17T23:33:17.995Z,5.90
2022-08-17T23:43:25.121Z,6.28
2022-08-17T23:53:36.547Z,5.40
